sensor_id;sensor_type;location;lat;lon;timestamp;pressure;altitude;pressure_sealevel;temperature;humidity
71666;BME280;59503;53.486;10.196;2022-11-20T00:01:26;101268.97;;;0.29;100.00
71666;BME280;59503;53.486;10.196;2022-11-20T00:03:53;101265.00;;;0.26;100.00
71666;BME280;59503;53.486;10.196;2022-11-20T00:06:19;101263.72;;;0.19;100.00
71666;BME280;59503;53.486;10.196;2022-11-20T00:08:46;101265.09;;;0.16;100.00
71666;BME280;59503;53.486;10.196;2022-11-20T00:11:14;101265.09;;;0.16;100.00
71666;BME280;59503;53.486;10.196;2022-11-20T00:13:40;101262.41;;;0.16;100.00
71666;BME280;59503;53.486;10.196;2022-11-20T00:16:09;101266.63;;;0.22;100.00
71666;BME280;59503;53.486;10.196;2022-11-20T00:18:35;101267.91;;;0.30;100.00
71666;BME280;59503;53.486;10.196;2022-11-20T00:21:06;101270.22;;;0.41;100.00
71666;BME280;59503;53.486;10.196;2022-11-20T00:23:32;101263.53;;;0.39;100.00
71666;BME280;59503;53.486;10.196;2022-11-20T00:26:05;101258.75;;;0.36;100.00
71666;BME280;59503;53.486;10.196;2022-11-20T00:28:31;101267.06;;;0.34;100.00
71666;BME280;59503;53.486;10.196;2022-11-20T00:31:16;101261.44;;;0.36;100.00
71666;BME280;59503;53.486;10.196;2022-11-20T00:33:42;101258.03;;;0.30;100.00
71666;BME280;59503;53.486;10.196;2022-11-20T00:36:19;101264.34;;;0.39;100.00
71666;BME280;59503;53.486;10.196;2022-11-20T00:38:45;101260.00;;;0.48;100.00
71666;BME280;59503;53.486;10.196;2022-11-20T00:41:14;101268.25;;;0.52;100.00
71666;BME280;59503;53.486;10.196;2022-11-20T00:43:40;101264.31;;;0.44;100.00
71666;BME280;59503;53.486;10.196;2022-11-20T00:46:16;101264.34;;;0.39;100.00
71666;BME280;59503;53.486;10.196;2022-11-20T00:48:42;101256.09;;;0.36;100.00
71666;BME280;59503;53.486;10.196;2022-11-20T00:51:08;101259.81;;;0.40;100.00
71666;BME280;59503;53.486;10.196;2022-11-20T00:53:34;101259.56;;;0.36;100.00
71666;BME280;59503;53.486;10.196;2022-11-20T00:56:02;101254.78;;;0.33;100.00
71666;BME280;59503;53.486;10.196;2022-11-20T00:58:37;101253.75;;;0.29;100.00
71666;BME280;59503;53.486;10.196;2022-11-20T01:01:17;101262.28;;;0.31;100.00
71666;BME280;59503;53.486;10.196;2022-11-20T01:03:45;101255.63;;;0.29;100.00
71666;BME280;59503;53.486;10.196;2022-11-20T01:08:49;101248.97;;;0.26;100.00
71666;BME280;59503;53.486;10.196;2022-11-20T01:11:20;101239.13;;;0.22;100.00
71666;BME280;59503;53.486;10.196;2022-11-20T01:13:47;101244.66;;;0.30;100.00
71666;BME280;59503;53.486;10.196;2022-11-20T01:16:24;101247.78;;;0.37;100.00
71666;BME280;59503;53.486;10.196;2022-11-20T01:18:52;101245.41;;;0.36;100.00
71666;BME280;59503;53.486;10.196;2022-11-20T01:21:29;101243.56;;;0.31;100.00
71666;BME280;59503;53.486;10.196;2022-11-20T01:23:55;101241.31;;;0.43;100.00
71666;BME280;59503;53.486;10.196;2022-11-20T01:26:24;101242.69;;;0.41;100.00
71666;BME280;59503;53.486;10.196;2022-11-20T01:28:50;101236.31;;;0.37;100.00
71666;BME280;59503;53.486;10.196;2022-11-20T01:31:22;101225.66;;;0.32;100.00
71666;BME280;59503;53.486;10.196;2022-11-20T01:33:51;101236.03;;;0.38;100.00
71666;BME280;59503;53.486;10.196;2022-11-20T01:36:18;101229.53;;;0.44;100.00
71666;BME280;59503;53.486;10.196;2022-11-20T01:38:44;101222.09;;;0.41;100.00
71666;BME280;59503;53.486;10.196;2022-11-20T01:41:11;101220.94;;;0.47;100.00
71666;BME280;59503;53.486;10.196;2022-11-20T01:43:57;101212.97;;;0.42;100.00
71666;BME280;59503;53.486;10.196;2022-11-20T01:46:22;101217.50;;;0.47;100.00
71666;BME280;59503;53.486;10.196;2022-11-20T01:49:04;101212.72;;;0.44;100.00
71666;BME280;59503;53.486;10.196;2022-11-20T01:51:40;101210.88;;;0.39;100.00
71666;BME280;59503;53.486;10.196;2022-11-20T01:54:13;101213.03;;;0.37;100.00
71666;BME280;59503;53.486;10.196;2022-11-20T01:56:43;101210.34;;;0.37;100.00
71666;BME280;59503;53.486;10.196;2022-11-20T01:59:10;101207.53;;;0.52;100.00
71666;BME280;59503;53.486;10.196;2022-11-20T02:01:37;101206.47;;;0.53;100.00
71666;BME280;59503;53.486;10.196;2022-11-20T02:04:04;101197.91;;;0.51;100.00
71666;BME280;59503;53.486;10.196;2022-11-20T02:06:37;101203.72;;;0.58;100.00
71666;BME280;59503;53.486;10.196;2022-11-20T02:09:04;101195.81;;;0.48;100.00
71666;BME280;59503;53.486;10.196;2022-11-20T02:11:30;101200.31;;;0.53;100.00
71666;BME280;59503;53.486;10.196;2022-11-20T02:13:56;101188.53;;;0.54;100.00
71666;BME280;59503;53.486;10.196;2022-11-20T02:16:24;101195.06;;;0.66;100.00
71666;BME280;59503;53.486;10.196;2022-11-20T02:18:51;101187.63;;;0.63;100.00
71666;BME280;59503;53.486;10.196;2022-11-20T02:21:23;101192.91;;;0.68;100.00
71666;BME280;59503;53.486;10.196;2022-11-20T02:24:25;101183.56;;;0.66;100.00
71666;BME280;59503;53.486;10.196;2022-11-20T02:26:53;101186.53;;;0.64;100.00
71666;BME280;59503;53.486;10.196;2022-11-20T02:29:39;101188.75;;;0.57;100.00
71666;BME280;59503;53.486;10.196;2022-11-20T02:32:21;101187.16;;;0.56;100.00
71666;BME280;59503;53.486;10.196;2022-11-20T02:34:47;101179.59;;;0.63;100.00
71666;BME280;59503;53.486;10.196;2022-11-20T02:37:13;101185.53;;;0.60;100.00
71666;BME280;59503;53.486;10.196;2022-11-20T02:39:40;101176.53;;;0.51;100.00
71666;BME280;59503;53.486;10.196;2022-11-20T02:42:05;101175.19;;;0.54;100.00
71666;BME280;59503;53.486;10.196;2022-11-20T02:44:31;101172.75;;;0.52;100.00
71666;BME280;59503;53.486;10.196;2022-11-20T02:46:57;101174.44;;;0.48;100.00
71666;BME280;59503;53.486;10.196;2022-11-20T02:49:24;101171.97;;;0.52;100.00
71666;BME280;59503;53.486;10.196;2022-11-20T02:51:49;101159.06;;;0.59;100.00
71666;BME280;59503;53.486;10.196;2022-11-20T02:54:15;101173.28;;;0.54;100.00
71666;BME280;59503;53.486;10.196;2022-11-20T02:56:40;101171.13;;;0.56;100.00
71666;BME280;59503;53.486;10.196;2022-11-20T02:59:06;101152.50;;;0.46;100.00
71666;BME280;59503;53.486;10.196;2022-11-20T03:01:32;101164.78;;;0.47;100.00
71666;BME280;59503;53.486;10.196;2022-11-20T03:03:57;101160.47;;;0.51;100.00
71666;BME280;59503;53.486;10.196;2022-11-20T03:06:23;101163.44;;;0.50;100.00
71666;BME280;59503;53.486;10.196;2022-11-20T03:08:48;101164.34;;;0.40;100.00
71666;BME280;59503;53.486;10.196;2022-11-20T03:11:13;101158.53;;;0.33;100.00
71666;BME280;59503;53.486;10.196;2022-11-20T03:13:39;101162.63;;;0.26;100.00
71666;BME280;59503;53.486;10.196;2022-11-20T03:16:13;101170.41;;;0.22;100.00
71666;BME280;59503;53.486;10.196;2022-11-20T03:18:41;101159.75;;;0.17;100.00
71666;BME280;59503;53.486;10.196;2022-11-20T03:21:07;101158.19;;;0.16;100.00
71666;BME280;59503;53.486;10.196;2022-11-20T03:23:34;101164.09;;;0.13;100.00
71666;BME280;59503;53.486;10.196;2022-11-20T03:26:09;101169.91;;;0.20;100.00
71666;BME280;59503;53.486;10.196;2022-11-20T03:28:35;101172.19;;;0.32;100.00
71666;BME280;59503;53.486;10.196;2022-11-20T03:31:11;101164.41;;;0.35;100.00
71666;BME280;59503;53.486;10.196;2022-11-20T03:33:38;101172.19;;;0.32;100.00
71666;BME280;59503;53.486;10.196;2022-11-20T03:36:07;101159.06;;;0.35;100.00
71666;BME280;59503;53.486;10.196;2022-11-20T03:38:33;101166.22;;;0.40;100.00
71666;BME280;59503;53.486;10.196;2022-11-20T03:41:05;101159.78;;;0.41;100.00
71666;BME280;59503;53.486;10.196;2022-11-20T03:43:31;101161.69;;;0.40;100.00
71666;BME280;59503;53.486;10.196;2022-11-20T03:45:57;101160.59;;;0.41;100.00
71666;BME280;59503;53.486;10.196;2022-11-20T03:48:23;101148.84;;;0.37;100.00
71666;BME280;59503;53.486;10.196;2022-11-20T03:50:48;101150.13;;;0.45;100.00
71666;BME280;59503;53.486;10.196;2022-11-20T03:53:15;101152.50;;;0.46;100.00
71666;BME280;59503;53.486;10.196;2022-11-20T03:55:40;101143.19;;;0.44;100.00
71666;BME280;59503;53.486;10.196;2022-11-20T03:58:06;101147.63;;;0.53;100.00
71666;BME280;59503;53.486;10.196;2022-11-20T04:00:31;101138.84;;;0.48;100.00
71666;BME280;59503;53.486;10.196;2022-11-20T04:02:58;101142.84;;;0.50;100.00
71666;BME280;59503;53.486;10.196;2022-11-20T04:05:24;101136.41;;;0.51;100.00
71666;BME280;59503;53.486;10.196;2022-11-20T04:07:49;101143.41;;;0.47;100.00
71666;BME280;59503;53.486;10.196;2022-11-20T04:10:15;101140.47;;;0.49;100.00
71666;BME280;59503;53.486;10.196;2022-11-20T04:12:40;101140.19;;;0.50;100.00
71666;BME280;59503;53.486;10.196;2022-11-20T04:15:06;101130.78;;;0.53;100.00
71666;BME280;59503;53.486;10.196;2022-11-20T04:17:31;101138.81;;;0.53;100.00
71666;BME280;59503;53.486;10.196;2022-11-20T04:19:57;101128.91;;;0.53;100.00
71666;BME280;59503;53.486;10.196;2022-11-20T04:22:22;101126.81;;;0.50;100.00
71666;BME280;59503;53.486;10.196;2022-11-20T04:24:48;101131.34;;;0.50;100.00
71666;BME280;59503;53.486;10.196;2022-11-20T04:27:13;101137.44;;;0.55;100.00
71666;BME280;59503;53.486;10.196;2022-11-20T04:29:39;101112.97;;;0.43;100.00
71666;BME280;59503;53.486;10.196;2022-11-20T04:32:05;101125.78;;;0.46;100.00
71666;BME280;59503;53.486;10.196;2022-11-20T04:34:30;101125.78;;;0.46;100.00
71666;BME280;59503;53.486;10.196;2022-11-20T04:36:56;101124.75;;;0.42;100.00
71666;BME280;59503;53.486;10.196;2022-11-20T04:39:21;101124.78;;;0.37;100.00
71666;BME280;59503;53.486;10.196;2022-11-20T04:41:46;101121.63;;;0.35;100.00
71666;BME280;59503;53.486;10.196;2022-11-20T04:44:12;101118.97;;;0.35;100.00
71666;BME280;59503;53.486;10.196;2022-11-20T04:46:40;101117.81;;;0.41;100.00
71666;BME280;59503;53.486;10.196;2022-11-20T04:49:06;101130.31;;;0.46;100.00
71666;BME280;59503;53.486;10.196;2022-11-20T04:51:33;101125.53;;;0.43;100.00
71666;BME280;59503;53.486;10.196;2022-11-20T04:53:59;101126.94;;;0.40;100.00
71666;BME280;59503;53.486;10.196;2022-11-20T04:56:25;101123.69;;;0.43;100.00
71666;BME280;59503;53.486;10.196;2022-11-20T04:58:50;101117.19;;;0.49;100.00
71666;BME280;59503;53.486;10.196;2022-11-20T05:01:19;101114.97;;;0.56;100.00
71666;BME280;59503;53.486;10.196;2022-11-20T05:03:45;101120.19;;;0.66;100.00
71666;BME280;59503;53.486;10.196;2022-11-20T05:06:13;101115.41;;;0.63;100.00
71666;BME280;59503;53.486;10.196;2022-11-20T05:08:39;101119.97;;;0.63;100.00
71666;BME280;59503;53.486;10.196;2022-11-20T05:11:11;101113.53;;;0.64;100.00
71666;BME280;59503;53.486;10.196;2022-11-20T05:13:37;101109.47;;;0.66;100.00
71666;BME280;59503;53.486;10.196;2022-11-20T05:16:08;101108.97;;;0.64;100.00
71666;BME280;59503;53.486;10.196;2022-11-20T05:18:35;101106.88;;;0.61;100.00
71666;BME280;59503;53.486;10.196;2022-11-20T05:21:00;101091.25;;;0.50;100.00
71666;BME280;59503;53.486;10.196;2022-11-20T05:23:27;101095.84;;;0.44;100.00
71666;BME280;59503;53.486;10.196;2022-11-20T05:25:56;101099.84;;;0.47;100.00
71666;BME280;59503;53.486;10.196;2022-11-20T05:28:22;101089.16;;;0.47;100.00
71666;BME280;59503;53.486;10.196;2022-11-20T05:30:48;101094.84;;;0.40;100.00
71666;BME280;59503;53.486;10.196;2022-11-20T05:33:14;101092.66;;;0.42;100.00
71666;BME280;59503;53.486;10.196;2022-11-20T05:35:40;101091.41;;;0.35;100.00
71666;BME280;59503;53.486;10.196;2022-11-20T05:38:05;101093.63;;;0.28;100.00
71666;BME280;59503;53.486;10.196;2022-11-20T05:40:30;101087.53;;;0.22;100.00
71666;BME280;59503;53.486;10.196;2022-11-20T05:42:56;101086.53;;;0.18;100.00
71666;BME280;59503;53.486;10.196;2022-11-20T05:45:21;101088.69;;;0.16;100.00
71666;BME280;59503;53.486;10.196;2022-11-20T05:47:47;101084.97;;;0.12;100.00
71666;BME280;59503;53.486;10.196;2022-11-20T05:50:13;101080.44;;;0.13;100.00
71666;BME280;59503;53.486;10.196;2022-11-20T05:52:39;101070.63;;;0.08;100.00
71666;BME280;59503;53.486;10.196;2022-11-20T05:55:05;101070.91;;;0.07;100.00
71666;BME280;59503;53.486;10.196;2022-11-20T05:57:31;101074.91;;;0.04;100.00
71666;BME280;59503;53.486;10.196;2022-11-20T05:59:56;101073.34;;;0.03;100.00
71666;BME280;59503;53.486;10.196;2022-11-20T06:02:22;101072.31;;;-0.01;100.00
71666;BME280;59503;53.486;10.196;2022-11-20T06:04:47;101083.50;;;0.01;100.00
71666;BME280;59503;53.486;10.196;2022-11-20T06:07:13;101078.91;;;0.07;100.00
71666;BME280;59503;53.486;10.196;2022-11-20T06:09:39;101079.25;;;0.00;100.00
71666;BME280;59503;53.486;10.196;2022-11-20T06:12:05;101079.75;;;0.02;100.00
71666;BME280;59503;53.486;10.196;2022-11-20T06:14:30;101080.84;;;0.01;100.00
71666;BME280;59503;53.486;10.196;2022-11-20T06:16:55;101083.28;;;-0.03;100.00
71666;BME280;59503;53.486;10.196;2022-11-20T06:19:21;101077.06;;;0.02;100.00
71666;BME280;59503;53.486;10.196;2022-11-20T06:21:48;101077.31;;;0.06;100.00
71666;BME280;59503;53.486;10.196;2022-11-20T06:24:14;101075.22;;;0.03;100.00
71666;BME280;59503;53.486;10.196;2022-11-20T06:26:40;101074.91;;;0.04;100.00
71666;BME280;59503;53.486;10.196;2022-11-20T06:29:05;101073.91;;;0.00;100.00
71666;BME280;59503;53.486;10.196;2022-11-20T06:31:31;101074.34;;;0.07;100.00
71666;BME280;59503;53.486;10.196;2022-11-20T06:34:00;101075.97;;;0.08;100.00
71666;BME280;59503;53.486;10.196;2022-11-20T06:36:26;101078.34;;;0.10;100.00
71666;BME280;59503;53.486;10.196;2022-11-20T06:38:52;101073.56;;;0.07;100.00
71666;BME280;59503;53.486;10.196;2022-11-20T06:41:19;101072.25;;;0.04;100.00
71666;BME280;59503;53.486;10.196;2022-11-20T06:43:45;101068.28;;;0.02;100.00
71666;BME280;59503;53.486;10.196;2022-11-20T06:46:12;101061.63;;;-0.01;100.00
71666;BME280;59503;53.486;10.196;2022-11-20T06:48:38;101055.81;;;-0.08;100.00
71666;BME280;59503;53.486;10.196;2022-11-20T06:51:05;101064.34;;;-0.06;100.00
71666;BME280;59503;53.486;10.196;2022-11-20T06:53:30;101056.84;;;-0.04;100.00
71666;BME280;59503;53.486;10.196;2022-11-20T06:55:56;101058.19;;;-0.07;100.00
71666;BME280;59503;53.486;10.196;2022-11-20T06:58:29;101060.88;;;-0.07;100.00
71666;BME280;59503;53.486;10.196;2022-11-20T07:01:14;101061.94;;;-0.08;100.00
71666;BME280;59503;53.486;10.196;2022-11-20T07:03:40;101065.59;;;0.02;100.00
71666;BME280;59503;53.486;10.196;2022-11-20T07:06:06;101058.88;;;0.04;100.00
71666;BME280;59503;53.486;10.196;2022-11-20T07:08:32;101069.22;;;0.11;100.00
71666;BME280;59503;53.486;10.196;2022-11-20T07:11:00;101056.97;;;0.10;100.00
71666;BME280;59503;53.486;10.196;2022-11-20T07:13:30;101063.19;;;0.24;100.00
71666;BME280;59503;53.486;10.196;2022-11-20T07:16:00;101069.13;;;0.21;100.00
71666;BME280;59503;53.486;10.196;2022-11-20T07:18:26;101069.97;;;0.16;100.00
71666;BME280;59503;53.486;10.196;2022-11-20T07:20:51;101056.38;;;0.13;100.00
71666;BME280;59503;53.486;10.196;2022-11-20T07:23:17;101058.25;;;0.12;100.00
71666;BME280;59503;53.486;10.196;2022-11-20T07:25:43;101069.41;;;0.19;100.00
71666;BME280;59503;53.486;10.196;2022-11-20T07:28:08;101065.38;;;0.22;100.00
71666;BME280;59503;53.486;10.196;2022-11-20T07:30:35;101061.03;;;0.26;100.00
71666;BME280;59503;53.486;10.196;2022-11-20T07:33:01;101066.69;;;0.24;100.00
71666;BME280;59503;53.486;10.196;2022-11-20T07:35:26;101058.03;;;0.32;100.00
71666;BME280;59503;53.486;10.196;2022-11-20T07:37:52;101057.47;;;0.35;100.00
71666;BME280;59503;53.486;10.196;2022-11-20T07:40:17;101049.44;;;0.35;100.00
71666;BME280;59503;53.486;10.196;2022-11-20T07:42:50;101061.09;;;0.44;100.00
71666;BME280;59503;53.486;10.196;2022-11-20T07:45:20;101057.91;;;0.42;100.00
71666;BME280;59503;53.486;10.196;2022-11-20T07:47:46;101060.56;;;0.42;100.00
71666;BME280;59503;53.486;10.196;2022-11-20T07:50:15;101068.53;;;0.47;100.00
71666;BME280;59503;53.486;10.196;2022-11-20T07:52:41;101065.78;;;0.52;100.00
71666;BME280;59503;53.486;10.196;2022-11-20T07:55:07;101064.66;;;0.58;100.00
71666;BME280;59503;53.486;10.196;2022-11-20T07:57:33;101060.88;;;0.59;100.00
71666;BME280;59503;53.486;10.196;2022-11-20T07:59:58;101062.91;;;0.67;100.00
71666;BME280;59503;53.486;10.196;2022-11-20T08:02:24;101062.44;;;0.65;100.00
71666;BME280;59503;53.486;10.196;2022-11-20T08:04:49;101060.81;;;0.64;100.00
71666;BME280;59503;53.486;10.196;2022-11-20T08:07:15;101054.47;;;0.60;100.00
71666;BME280;59503;53.486;10.196;2022-11-20T08:09:40;101052.56;;;0.61;100.00
71666;BME280;59503;53.486;10.196;2022-11-20T08:12:06;101061.56;;;0.70;100.00
71666;BME280;59503;53.486;10.196;2022-11-20T08:14:50;101057.56;;;0.67;100.00
71666;BME280;59503;53.486;10.196;2022-11-20T08:17:15;101053.75;;;0.73;100.00
71666;BME280;59503;53.486;10.196;2022-11-20T08:19:41;101050.28;;;0.73;100.00
71666;BME280;59503;53.486;10.196;2022-11-20T08:22:06;101053.97;;;0.77;100.00
71666;BME280;59503;53.486;10.196;2022-11-20T08:24:31;101055.84;;;0.76;100.00
71666;BME280;59503;53.486;10.196;2022-11-20T08:26:58;101057.72;;;0.94;100.00
71666;BME280;59503;53.486;10.196;2022-11-20T08:29:25;101055.56;;;0.96;100.00
71666;BME280;59503;53.486;10.196;2022-11-20T08:31:50;101054.19;;;0.99;100.00
71666;BME280;59503;53.486;10.196;2022-11-20T08:34:16;101064.16;;;0.93;100.00
71666;BME280;59503;53.486;10.196;2022-11-20T08:36:41;101054.81;;;1.09;100.00
71666;BME280;59503;53.486;10.196;2022-11-20T08:39:06;101062.78;;;1.14;100.00
71666;BME280;59503;53.486;10.196;2022-11-20T08:41:32;101057.16;;;0.97;100.00
71666;BME280;59503;53.486;10.196;2022-11-20T08:43:59;101064.38;;;0.97;100.00
71666;BME280;59503;53.486;10.196;2022-11-20T08:46:32;101064.03;;;1.03;100.00
71666;BME280;59503;53.486;10.196;2022-11-20T08:49:03;101061.69;;;1.15;100.00
71666;BME280;59503;53.486;10.196;2022-11-20T08:51:29;101061.78;;;1.10;100.00
71666;BME280;59503;53.486;10.196;2022-11-20T08:53:54;101063.72;;;1.23;100.00
71666;BME280;59503;53.486;10.196;2022-11-20T08:56:20;101058.94;;;1.20;100.00
71666;BME280;59503;53.486;10.196;2022-11-20T08:58:45;101059.38;;;1.27;100.00
71666;BME280;59503;53.486;10.196;2022-11-20T09:01:11;101063.94;;;1.27;100.00
71666;BME280;59503;53.486;10.196;2022-11-20T09:03:36;101063.63;;;1.28;100.00
71666;BME280;59503;53.486;10.196;2022-11-20T09:06:07;101065.25;;;1.43;100.00
71666;BME280;59503;53.486;10.196;2022-11-20T09:08:33;101064.88;;;1.50;100.00
71666;BME280;59503;53.486;10.196;2022-11-20T09:10:59;101058.66;;;1.54;100.00
71666;BME280;59503;53.486;10.196;2022-11-20T09:13:27;101064.63;;;1.51;100.00
71666;BME280;59503;53.486;10.196;2022-11-20T09:15:54;101058.50;;;1.64;100.00
71666;BME280;59503;53.486;10.196;2022-11-20T09:18:19;101069.31;;;1.73;100.00
71666;BME280;59503;53.486;10.196;2022-11-20T09:20:45;101059.38;;;1.73;100.00
71666;BME280;59503;53.486;10.196;2022-11-20T09:23:10;101066.72;;;1.68;100.00
71666;BME280;59503;53.486;10.196;2022-11-20T09:25:35;101069.53;;;1.76;100.00
71666;BME280;59503;53.486;10.196;2022-11-20T09:28:01;101064.47;;;1.88;100.00
71666;BME280;59503;53.486;10.196;2022-11-20T09:30:27;101057.13;;;1.94;100.00
71666;BME280;59503;53.486;10.196;2022-11-20T09:32:52;101064.47;;;2.02;100.00
71666;BME280;59503;53.486;10.196;2022-11-20T09:35:18;101051.09;;;2.02;100.00
71666;BME280;59503;53.486;10.196;2022-11-20T09:37:44;101058.66;;;2.00;100.00
71666;BME280;59503;53.486;10.196;2022-11-20T09:40:28;101063.63;;;2.06;100.00
71666;BME280;59503;53.486;10.196;2022-11-20T09:51:57;101064.69;;;2.05;100.00
71666;BME280;59503;53.486;10.196;2022-11-20T09:54:35;101059.41;;;2.00;100.00
71666;BME280;59503;53.486;10.196;2022-11-20T09:57:18;101065.00;;;2.04;100.00
71666;BME280;59503;53.486;10.196;2022-11-20T09:59:50;101060.53;;;1.99;100.00
71666;BME280;59503;53.486;10.196;2022-11-20T10:05:10;101065.41;;;2.11;100.00
71666;BME280;59503;53.486;10.196;2022-11-20T10:10:18;101069.25;;;1.78;100.00
71666;BME280;59503;53.486;10.196;2022-11-20T10:24:56;101054.16;;;1.36;100.00
71666;BME280;59503;53.486;10.196;2022-11-20T10:30:13;101057.72;;;1.45;100.00
71666;BME280;59503;53.486;10.196;2022-11-20T10:32:41;101050.25;;;1.61;100.00
71666;BME280;59503;53.486;10.196;2022-11-20T10:37:44;101046.28;;;1.72;100.00
71666;BME280;59503;53.486;10.196;2022-11-20T10:40:22;101045.22;;;1.73;100.00
71666;BME280;59503;53.486;10.196;2022-11-20T10:43:40;101040.16;;;1.71;100.00
71666;BME280;59503;53.486;10.196;2022-11-20T10:48:27;101032.63;;;2.00;100.00
71666;BME280;59503;53.486;10.196;2022-11-20T11:01:42;101032.91;;;2.12;100.00
71666;BME280;59503;53.486;10.196;2022-11-20T11:07:00;101037.94;;;1.73;100.00
71666;BME280;59503;53.486;10.196;2022-11-20T11:09:35;101035.09;;;1.83;100.00
71666;BME280;59503;53.486;10.196;2022-11-20T11:12:10;101031.22;;;1.76;100.00
71666;BME280;59503;53.486;10.196;2022-11-20T11:14:46;101020.31;;;1.86;100.00
71666;BME280;59503;53.486;10.196;2022-11-20T11:22:55;101013.56;;;2.15;100.00
71666;BME280;59503;53.486;10.196;2022-11-20T11:27:53;101015.25;;;2.11;100.00
71666;BME280;59503;53.486;10.196;2022-11-20T11:30:21;101023.31;;;1.98;100.00
71666;BME280;59503;53.486;10.196;2022-11-20T11:32:47;101019.41;;;2.04;99.34
71666;BME280;59503;53.486;10.196;2022-11-20T11:35:45;101016.13;;;1.93;99.91
71666;BME280;59503;53.486;10.196;2022-11-20T11:38:15;101012.69;;;1.93;100.00
71666;BME280;59503;53.486;10.196;2022-11-20T11:40:41;101014.75;;;1.96;100.00
71666;BME280;59503;53.486;10.196;2022-11-20T11:43:17;101017.13;;;2.11;100.00
71666;BME280;59503;53.486;10.196;2022-11-20T11:46:06;101005.59;;;2.10;100.00
71666;BME280;59503;53.486;10.196;2022-11-20T11:48:39;101006.81;;;2.18;99.66
71666;BME280;59503;53.486;10.196;2022-11-20T11:51:08;101001.75;;;2.30;98.81
71666;BME280;59503;53.486;10.196;2022-11-20T11:53:39;101002.22;;;2.32;97.76
71666;BME280;59503;53.486;10.196;2022-11-20T11:56:11;101014.94;;;2.26;96.55
71666;BME280;59503;53.486;10.196;2022-11-20T11:58:46;101014.75;;;2.23;94.91
71666;BME280;59503;53.486;10.196;2022-11-20T12:04:11;101016.13;;;2.34;96.16
71666;BME280;59503;53.486;10.196;2022-11-20T12:06:43;101013.25;;;2.17;96.11
71666;BME280;59503;53.486;10.196;2022-11-20T12:09:11;101012.38;;;2.35;94.99
71666;BME280;59503;53.486;10.196;2022-11-20T12:14:30;101010.03;;;2.42;96.14
71666;BME280;59503;53.486;10.196;2022-11-20T12:17:00;101007.78;;;2.35;94.56
71666;BME280;59503;53.486;10.196;2022-11-20T12:19:29;101005.38;;;2.34;94.38
71666;BME280;59503;53.486;10.196;2022-11-20T12:29:49;100994.06;;;2.37;94.06
71666;BME280;59503;53.486;10.196;2022-11-20T12:32:59;100988.59;;;2.42;93.58
71666;BME280;59503;53.486;10.196;2022-11-20T12:41:11;100985.44;;;2.40;91.74
71666;BME280;59503;53.486;10.196;2022-11-20T12:44:00;100979.69;;;2.33;90.88
71666;BME280;59503;53.486;10.196;2022-11-20T12:47:13;100981.56;;;2.19;92.05
71666;BME280;59503;53.486;10.196;2022-11-20T12:52:53;100975.91;;;2.20;92.08
71666;BME280;59503;53.486;10.196;2022-11-20T12:55:42;100980.81;;;2.18;90.61
71666;BME280;59503;53.486;10.196;2022-11-20T13:01:24;100981.59;;;2.05;89.19
71666;BME280;59503;53.486;10.196;2022-11-20T13:04:16;100989.44;;;2.02;90.87
71666;BME280;59503;53.486;10.196;2022-11-20T13:06:44;100981.38;;;2.02;91.90
71666;BME280;59503;53.486;10.196;2022-11-20T13:09:13;100979.31;;;1.99;93.06
71666;BME280;59503;53.486;10.196;2022-11-20T13:12:07;100983.50;;;2.05;92.67
71666;BME280;59503;53.486;10.196;2022-11-20T13:14:56;100978.59;;;1.93;93.58
71666;BME280;59503;53.486;10.196;2022-11-20T13:17:34;100979.41;;;1.94;92.60
71666;BME280;59503;53.486;10.196;2022-11-20T13:20:05;100985.78;;;1.84;93.97
71666;BME280;59503;53.486;10.196;2022-11-20T13:22:49;100976.06;;;1.75;94.39
71666;BME280;59503;53.486;10.196;2022-11-20T13:25:36;100973.44;;;1.70;94.45
71666;BME280;59503;53.486;10.196;2022-11-20T13:30:50;100972.25;;;1.76;95.32
71666;BME280;59503;53.486;10.196;2022-11-20T13:36:00;100960.94;;;1.79;95.64
71666;BME280;59503;53.486;10.196;2022-11-20T13:38:27;100965.03;;;1.76;94.80
71666;BME280;59503;53.486;10.196;2022-11-20T13:40:56;100955.88;;;1.77;94.60
71666;BME280;59503;53.486;10.196;2022-11-20T13:46:07;100964.94;;;1.95;94.36
71666;BME280;59503;53.486;10.196;2022-11-20T13:48:43;100956.69;;;2.05;94.01
71666;BME280;59503;53.486;10.196;2022-11-20T14:02:43;100939.72;;;1.82;94.04
71666;BME280;59503;53.486;10.196;2022-11-20T14:05:22;100929.09;;;1.77;94.67
71666;BME280;59503;53.486;10.196;2022-11-20T14:07:49;100930.19;;;1.76;95.38
71666;BME280;59503;53.486;10.196;2022-11-20T14:10:22;100935.16;;;1.83;96.14
71666;BME280;59503;53.486;10.196;2022-11-20T14:12:48;100935.06;;;1.88;93.93
71666;BME280;59503;53.486;10.196;2022-11-20T14:15:29;100934.66;;;1.94;93.68
71666;BME280;59503;53.486;10.196;2022-11-20T14:17:55;100933.16;;;1.88;94.52
71666;BME280;59503;53.486;10.196;2022-11-20T14:20:27;100922.25;;;1.85;94.91
71666;BME280;59503;53.486;10.196;2022-11-20T14:22:54;100925.50;;;1.82;96.11
71666;BME280;59503;53.486;10.196;2022-11-20T14:25:22;100926.81;;;1.84;96.55
71666;BME280;59503;53.486;10.196;2022-11-20T14:27:59;100920.84;;;1.87;96.37
71666;BME280;59503;53.486;10.196;2022-11-20T14:30:27;100912.00;;;1.87;94.93
71666;BME280;59503;53.486;10.196;2022-11-20T14:32:56;100916.28;;;1.88;95.93
71666;BME280;59503;53.486;10.196;2022-11-20T14:35:28;100919.06;;;1.83;96.06